Time;durP1;ratioP1;P1;durP2;ratioP2;P2;SDS_P1;SDS_P2;PMS_P1;PMS_P2;Temp;Humidity;BMP_temperature;BMP_pressure;BME280_temperature;BME280_humidity;BME280_pressure;Samples;Min_cycle;Max_cycle;Signal;HPM_P1;HPM_P2
2022/05/11 00:01:29;;;;;;;8.05;3.78;;;;;;;17.57;75.60;98831.06;5015298;28;20029;-65
2022/05/11 00:03:55;;;;;;;8.23;4.43;;;;;;;17.55;75.98;98825.19;4992088;28;20029;-66
2022/05/11 00:06:21;;;;;;;6.50;4.10;;;;;;;17.09;76.62;98772.88;5020663;28;20029;-64
2022/05/11 00:08:46;;;;;;;6.75;4.03;;;;;;;17.21;76.65;98795.06;5023265;28;20037;-65
2022/05/11 00:11:11;;;;;;;6.50;3.75;;;;;;;17.42;76.32;98825.84;5019509;28;20026;-64
2022/05/11 00:13:37;;;;;;;7.60;4.18;;;;;;;17.26;76.14;98815.53;5021469;28;20032;-66
2022/05/11 00:16:03;;;;;;;6.55;3.75;;;;;;;17.29;76.62;98820.44;5021940;28;20119;-66
2022/05/11 00:18:28;;;;;;;7.28;4.30;;;;;;;17.29;77.03;98810.72;5022613;28;20029;-65
2022/05/11 00:20:54;;;;;;;6.47;4.32;;;;;;;17.28;76.85;98811.72;5005572;28;20529;-64
2022/05/11 00:23:19;;;;;;;7.32;4.50;;;;;;;17.18;77.93;98799.88;5018101;28;20131;-64
2022/05/11 00:25:45;;;;;;;6.30;4.18;;;;;;;17.19;79.40;98822.50;5017163;28;20028;-64
2022/05/11 00:28:11;;;;;;;7.18;4.28;;;;;;;17.12;82.07;98808.47;5011198;28;20034;-64
2022/05/11 00:30:36;;;;;;;7.38;4.72;;;;;;;17.16;82.03;98810.56;5021191;28;20578;-63
2022/05/11 00:33:02;;;;;;;8.07;4.57;;;;;;;17.15;83.33;98813.38;5016688;28;20022;-64
2022/05/11 00:35:30;;;;;;;9.18;5.03;;;;;;;17.13;84.66;98807.50;5035507;28;20098;-64
2022/05/11 00:37:55;;;;;;;6.13;4.10;;;;;;;17.09;84.03;98804.41;5017666;28;20037;-65
2022/05/11 00:40:23;;;;;;;8.65;4.53;;;;;;;17.01;85.32;98802.69;5006053;28;20022;-64
2022/05/11 00:42:48;;;;;;;6.18;4.05;;;;;;;17.03;85.46;98802.50;5019742;28;20112;-65
2022/05/11 00:45:14;;;;;;;7.53;4.80;;;;;;;16.89;86.52;98806.75;5036210;28;20050;-66
2022/05/11 00:47:46;;;;;;;8.43;4.57;;;;;;;16.58;87.07;98776.19;5018689;28;20030;-65
2022/05/11 00:50:19;;;;;;;7.10;4.50;;;;;;;16.82;87.30;98809.25;5019340;28;20022;-64
2022/05/11 00:52:58;;;;;;;6.63;4.10;;;;;;;16.85;87.37;98805.50;5019422;28;20025;-65
2022/05/11 00:55:31;;;;;;;7.18;4.22;;;;;;;16.59;87.21;98759.47;5020448;28;20033;-64
2022/05/11 00:58:09;;;;;;;6.38;4.30;;;;;;;16.66;84.87;98804.97;5015924;28;20035;-65
2022/05/11 01:00:36;;;;;;;8.10;4.32;;;;;;;16.60;85.30;98808.31;5012291;28;20463;-65
2022/05/11 01:03:17;;;;;;;9.00;4.78;;;;;;;16.46;85.57;98778.41;5016584;28;20743;-64
2022/05/11 01:05:43;;;;;;;8.95;4.25;;;;;;;16.62;84.75;98795.03;5019089;28;20025;-66
2022/05/11 01:08:09;;;;;;;7.10;4.30;;;;;;;16.68;84.80;98796.91;5003473;28;20245;-64
2022/05/11 01:10:35;;;;;;;7.72;4.47;;;;;;;16.75;84.43;98797.84;5021247;28;20073;-65
2022/05/11 01:13:04;;;;;;;8.45;4.60;;;;;;;16.75;84.60;98789.16;5019763;28;20427;-66
2022/05/11 01:15:32;;;;;;;10.27;4.65;;;;;;;16.72;84.02;98785.09;5021469;28;20032;-64
2022/05/11 01:17:57;;;;;;;7.30;4.50;;;;;;;16.57;84.50;98785.06;5038959;28;20626;-64
2022/05/11 01:20:24;;;;;;;7.55;4.53;;;;;;;16.52;85.44;98792.66;5020632;28;20026;-65
2022/05/11 01:23:11;;;;;;;8.05;4.75;;;;;;;16.51;86.21;98788.41;5047681;28;20520;-64
2022/05/11 01:25:36;;;;;;;6.65;4.55;;;;;;;16.50;85.63;98779.72;5014201;28;20037;-64
2022/05/11 01:28:03;;;;;;;6.28;4.43;;;;;;;16.65;85.32;98790.22;5004455;28;20037;-64
2022/05/11 01:30:29;;;;;;;7.43;4.65;;;;;;;16.69;85.18;98794.13;5011211;28;20122;-65
2022/05/11 01:32:55;;;;;;;6.85;4.57;;;;;;;16.65;85.40;98792.84;5016055;28;20124;-66
2022/05/11 01:35:42;;;;;;;7.03;4.72;;;;;;;16.51;86.15;98789.22;5014970;28;20112;-64
2022/05/11 01:38:44;;;;;;;7.10;4.95;;;;;;;16.56;85.58;98796.56;5015090;28;20041;-65
2022/05/11 01:41:18;;;;;;;7.05;4.75;;;;;;;16.72;85.42;98795.59;5013963;28;20021;-64
2022/05/11 01:43:44;;;;;;;7.75;4.50;;;;;;;16.62;85.28;98787.97;5017420;28;20505;-64
2022/05/11 01:46:09;;;;;;;6.32;4.25;;;;;;;16.50;86.33;98789.38;5020935;28;20587;-64
2022/05/11 01:48:35;;;;;;;7.43;5.18;;;;;;;16.27;86.04;98750.09;5019441;28;20108;-64
2022/05/11 01:51:00;;;;;;;8.40;4.68;;;;;;;16.43;86.19;98780.63;5020242;28;20099;-65
2022/05/11 01:53:27;;;;;;;7.53;4.47;;;;;;;16.46;85.97;98783.66;5011201;28;20804;-65
2022/05/11 01:55:52;;;;;;;7.32;4.55;;;;;;;16.49;85.42;98787.75;5028845;28;20095;-65
2022/05/11 01:58:18;;;;;;;6.20;4.38;;;;;;;16.48;85.74;98783.50;5013014;28;20029;-65
2022/05/11 02:00:45;;;;;;;7.75;4.80;;;;;;;16.55;85.88;98786.22;5017340;28;20346;-64
2022/05/11 02:03:11;;;;;;;7.38;4.65;;;;;;;16.56;85.74;98780.81;5019012;28;20055;-64
2022/05/11 02:08:21;;;;;;;7.20;4.63;;;;;;;16.49;85.37;98767.56;5012067;28;20036;-65
2022/05/11 02:10:46;;;;;;;7.20;5.00;;;;;;;16.53;85.17;98786.41;5018149;28;20069;-65
2022/05/11 02:13:12;;;;;;;6.72;4.82;;;;;;;16.16;85.35;98704.09;5018380;28;20052;-64
2022/05/11 02:15:37;;;;;;;6.40;4.32;;;;;;;16.39;85.31;98735.53;5013845;28;20565;-65
2022/05/11 02:18:04;;;;;;;6.85;4.38;;;;;;;16.66;85.35;98780.53;5014659;28;20029;-64
2022/05/11 02:20:29;;;;;;;7.22;4.63;;;;;;;16.56;84.93;98765.06;5023421;28;20137;-65
2022/05/11 02:22:55;;;;;;;7.47;5.13;;;;;;;16.29;85.29;98740.22;5020366;28;20253;-64
2022/05/11 02:25:21;;;;;;;7.80;4.95;;;;;;;16.49;85.71;98785.13;5024101;28;20635;-65
2022/05/11 02:27:48;;;;;;;7.15;4.78;;;;;;;16.36;85.86;98779.69;5020964;28;20230;-65
2022/05/11 02:30:27;;;;;;;7.60;4.80;;;;;;;16.41;86.01;98777.31;5019618;28;20036;-64
2022/05/11 02:32:53;;;;;;;7.85;4.90;;;;;;;16.31;85.34;98765.28;5022445;28;20479;-64
2022/05/11 02:35:19;;;;;;;7.53;4.65;;;;;;;16.25;85.23;98775.69;5023863;28;20052;-66
2022/05/11 02:37:51;;;;;;;8.05;4.80;;;;;;;16.25;85.44;98781.75;5021412;28;20025;-65
2022/05/11 02:40:20;;;;;;;8.73;5.00;;;;;;;16.28;85.95;98780.56;5019163;28;20092;-65
2022/05/11 02:42:45;;;;;;;7.65;4.85;;;;;;;16.29;86.11;98777.75;5052154;28;20116;-64
2022/05/11 02:45:12;;;;;;;6.90;4.75;;;;;;;16.23;86.37;98786.34;5018759;28;20072;-64
2022/05/11 02:47:38;;;;;;;7.10;4.82;;;;;;;16.25;86.63;98783.56;5017251;28;20095;-64
2022/05/11 02:50:06;;;;;;;8.63;5.10;;;;;;;16.31;86.87;98794.13;5022350;28;20554;-65
2022/05/11 02:52:32;;;;;;;8.25;4.80;;;;;;;16.34;87.22;98791.16;5021785;28;20034;-64
2022/05/11 02:54:58;;;;;;;7.75;4.65;;;;;;;16.22;87.42;98763.72;5033291;28;20080;-65
2022/05/11 02:57:23;;;;;;;8.38;4.70;;;;;;;16.40;86.76;98788.84;5051243;28;20029;-64
2022/05/11 02:59:49;;;;;;;6.97;4.80;;;;;;;16.36;86.95;98795.44;5031927;28;20057;-65
2022/05/11 03:02:17;;;;;;;14.73;5.43;;;;;;;16.21;87.19;98793.59;5022784;28;20029;-65
2022/05/11 03:04:42;;;;;;;8.43;4.65;;;;;;;16.00;87.64;98761.94;5015047;28;20034;-64
2022/05/11 03:07:08;;;;;;;7.97;5.38;;;;;;;16.20;88.13;98797.19;5018024;28;20226;-64
2022/05/11 03:09:33;;;;;;;7.78;4.97;;;;;;;16.21;87.89;98806.69;5006711;28;20037;-64
2022/05/11 03:11:59;;;;;;;7.25;4.88;;;;;;;16.21;88.42;98790.13;5036892;28;20065;-64
2022/05/11 03:14:25;;;;;;;7.65;5.28;;;;;;;16.18;87.78;98801.00;5020365;28;20037;-65
2022/05/11 03:16:50;;;;;;;7.93;5.30;;;;;;;16.09;88.07;98798.41;5022428;28;20495;-64
2022/05/11 03:19:15;;;;;;;7.50;4.97;;;;;;;15.96;88.79;98792.94;5016615;28;20068;-64
2022/05/11 03:21:41;;;;;;;9.15;5.30;;;;;;;15.97;89.33;98809.50;5018012;28;20025;-65
2022/05/11 03:24:06;;;;;;;8.05;5.10;;;;;;;15.77;90.44;98804.72;5014038;28;20057;-65
2022/05/11 03:26:34;;;;;;;8.30;4.90;;;;;;;15.72;90.39;98818.31;5021930;28;20083;-65
2022/05/11 03:28:59;;;;;;;7.25;4.93;;;;;;;15.49;89.65;98765.84;5010001;28;20026;-64
2022/05/11 03:31:25;;;;;;;6.97;4.78;;;;;;;15.85;89.68;98812.53;5020637;28;20021;-64
2022/05/11 03:36:34;;;;;;;7.15;4.93;;;;;;;15.95;88.88;98797.38;5018942;28;20037;-67
2022/05/11 03:38:59;;;;;;;11.02;5.10;;;;;;;15.93;89.11;98807.25;5022070;28;20021;-65
2022/05/11 03:41:25;;;;;;;8.23;4.75;;;;;;;15.87;89.11;98809.72;5038971;28;20025;-65
2022/05/11 03:43:50;;;;;;;8.88;5.10;;;;;;;15.91;89.11;98809.19;5022107;28;20060;-65
2022/05/11 03:46:16;;;;;;;8.10;4.80;;;;;;;15.91;88.99;98809.19;5017438;28;20028;-65
2022/05/11 03:48:42;;;;;;;8.82;4.88;;;;;;;15.81;89.47;98803.38;5013672;28;20088;-64
2022/05/11 03:51:07;;;;;;;8.27;5.35;;;;;;;15.53;90.17;98774.16;5022112;28;20049;-65
2022/05/11 03:53:34;;;;;;;8.13;5.32;;;;;;;15.78;89.10;98810.78;5013652;28;20512;-66
2022/05/11 07:17:33;;;;;;;8.30;5.72;;;;;;;17.04;82.91;98956.50;5002016;28;20110;-65
2022/05/11 07:20:00;;;;;;;10.30;7.50;;;;;;;17.05;82.42;98961.56;5005491;28;20056;-65
2022/05/11 07:22:26;;;;;;;9.13;6.15;;;;;;;17.04;83.27;98949.41;5019185;28;20472;-66
2022/05/11 07:24:52;;;;;;;8.57;5.38;;;;;;;17.12;83.77;98963.47;5006152;28;20026;-65
2022/05/11 07:27:18;;;;;;;7.85;5.10;;;;;;;17.16;84.35;98960.34;4996150;28;20092;-64
2022/05/11 07:29:44;;;;;;;12.32;6.30;;;;;;;17.16;83.94;98962.97;5012228;28;20096;-65
2022/05/11 07:32:10;;;;;;;9.70;5.72;;;;;;;16.94;83.13;98919.16;5004428;28;20592;-65
2022/05/11 07:34:36;;;;;;;8.10;5.95;;;;;;;17.22;84.22;98961.41;5015927;28;20109;-64
2022/05/11 07:37:01;;;;;;;8.70;5.43;;;;;;;17.25;83.74;98958.44;5024002;28;20112;-66
2022/05/11 07:39:27;;;;;;;9.18;5.00;;;;;;;17.26;82.96;98952.19;5008749;28;20432;-66
2022/05/11 07:41:55;;;;;;;8.43;4.88;;;;;;;17.31;81.34;98952.47;5016817;28;20054;-66
2022/05/11 07:44:21;;;;;;;7.97;5.03;;;;;;;17.24;79.61;98962.88;5018995;28;20096;-66
2022/05/11 07:46:47;;;;;;;9.35;5.22;;;;;;;17.28;79.68;98955.44;5003458;28;20535;-66
2022/05/11 07:49:13;;;;;;;7.97;5.20;;;;;;;17.07;79.50;98914.91;5019608;28;20112;-66
2022/05/11 07:51:41;;;;;;;8.27;4.72;;;;;;;17.14;78.75;98915.03;5012318;28;20040;-66
2022/05/11 07:54:07;;;;;;;14.13;5.30;;;;;;;17.41;78.16;98952.19;5014561;28;20013;-65
2022/05/11 08:02:00;;;;;;;8.70;4.72;;;;;;;18.98;71.46;98944.69;5004905;28;20400;-66
2022/05/11 08:04:25;;;;;;;7.07;4.82;;;;;;;19.25;69.41;98952.78;5011402;28;20025;-66
2022/05/11 08:06:51;;;;;;;7.35;4.47;;;;;;;19.54;68.35;98945.66;5019168;28;20092;-66
2022/05/11 08:09:16;;;;;;;8.60;4.18;;;;;;;19.56;67.75;98920.72;5007721;28;20123;-65
2022/05/11 08:11:42;;;;;;;8.07;4.82;;;;;;;20.00;67.07;98954.84;5035507;28;20030;-65
2022/05/11 08:14:08;;;;;;;8.00;4.53;;;;;;;20.27;65.51;98953.91;5007582;28;20869;-63
2022/05/11 08:16:33;;;;;;;8.60;4.63;;;;;;;20.64;65.48;98957.03;5004821;28;20021;-65
2022/05/11 08:18:59;;;;;;;6.05;3.95;;;;;;;20.63;61.95;98954.63;5008398;28;20374;-63
2022/05/11 08:21:25;;;;;;;7.53;4.85;;;;;;;21.02;61.20;98937.97;5021323;28;20052;-64
2022/05/11 08:23:50;;;;;;;7.57;4.72;;;;;;;21.44;62.04;98943.78;5011596;28;20049;-65
2022/05/11 08:26:16;;;;;;;7.25;4.68;;;;;;;21.86;59.26;98943.50;4988229;28;20127;-65
2022/05/11 08:28:42;;;;;;;8.52;4.53;;;;;;;22.43;55.67;98939.19;5009176;28;20359;-65
2022/05/11 08:33:52;;;;;;;6.20;4.13;;;;;;;23.16;53.18;98932.50;5001777;28;20029;-65
2022/05/11 08:36:23;;;;;;;7.45;4.45;;;;;;;23.58;52.23;98929.22;5002337;28;20022;-65
2022/05/11 08:38:52;;;;;;;7.63;4.40;;;;;;;23.79;50.43;98936.75;5031613;28;20022;-66
2022/05/11 08:41:48;;;;;;;7.82;4.35;;;;;;;23.98;49.73;98928.75;5021129;28;20033;-64
2022/05/11 08:44:19;;;;;;;6.68;4.40;;;;;;;24.46;47.72;98933.22;5022861;28;20025;-65
2022/05/11 08:46:50;;;;;;;8.60;4.63;;;;;;;24.68;47.21;98933.53;5004188;28;20022;-66
2022/05/11 08:49:23;;;;;;;6.65;4.60;;;;;;;24.62;48.02;98915.81;5003710;28;20473;-65
2022/05/11 08:52:04;;;;;;;6.88;4.43;;;;;;;25.24;45.69;98891.44;5006576;28;20026;-65
2022/05/11 08:54:49;;;;;;;6.28;4.32;;;;;;;25.76;46.58;98927.94;5027934;28;20030;-65
2022/05/11 08:57:17;;;;;;;7.00;3.95;;;;;;;25.49;44.61;98928.44;5034675;28;20033;-64
2022/05/11 08:59:43;;;;;;;6.13;4.27;;;;;;;25.46;45.38;98920.94;4995595;28;20044;-65
2022/05/11 09:02:19;;;;;;;7.72;4.68;;;;;;;25.74;44.44;98914.06;5034304;28;20030;-64
2022/05/11 09:04:51;;;;;;;9.55;4.53;;;;;;;26.15;43.80;98919.38;5003479;28;20088;-65
2022/05/11 09:07:16;;;;;;;7.88;4.47;;;;;;;26.03;43.36;98919.41;5000584;28;20030;-65
2022/05/11 09:09:42;;;;;;;6.97;3.90;;;;;;;26.31;43.31;98920.44;5012550;28;20358;-68
2022/05/11 09:12:10;;;;;;;8.77;4.30;;;;;;;26.47;43.24;98915.13;5032897;28;20785;-65
2022/05/11 09:14:35;;;;;;;11.00;4.30;;;;;;;26.56;42.22;98920.88;5002045;28;20490;-65
2022/05/11 09:17:01;;;;;;;6.88;3.83;;;;;;;26.22;43.01;98918.16;5004296;28;20337;-65
2022/05/11 09:19:32;;;;;;;7.43;4.30;;;;;;;26.04;43.52;98910.38;5021231;28;20120;-65
2022/05/11 09:22:17;;;;;;;7.30;4.07;;;;;;;26.22;43.46;98912.03;5002678;28;20030;-65
2022/05/11 09:24:54;;;;;;;5.28;3.25;;;;;;;26.10;42.53;98909.41;5023090;28;20142;-66
2022/05/11 09:27:38;;;;;;;7.82;4.28;;;;;;;26.14;42.24;98910.56;5008150;28;20121;-66
2022/05/11 09:30:25;;;;;;;8.75;4.00;;;;;;;25.67;42.86;98886.75;5022387;28;20037;-65
2022/05/11 09:32:54;;;;;;;7.60;4.35;;;;;;;25.04;44.31;98913.06;5005186;28;20508;-66
2022/05/11 09:35:36;;;;;;;7.20;4.17;;;;;;;24.82;45.92;98914.69;5045863;28;20060;-65
2022/05/11 09:38:17;;;;;;;9.45;4.78;;;;;;;24.51;47.37;98912.06;5001036;28;20024;-65
2022/05/11 09:40:52;;;;;;;8.38;4.85;;;;;;;23.90;48.55;98911.28;5002247;28;20104;-65
2022/05/11 09:43:30;;;;;;;10.68;5.05;;;;;;;23.64;48.65;98907.09;5005694;28;20030;-66
2022/05/11 09:45:56;;;;;;;7.55;4.80;;;;;;;23.37;49.37;98899.44;5003950;28;20543;-66
2022/05/11 09:48:30;;;;;;;9.77;4.88;;;;;;;23.52;49.44;98898.25;5008766;28;20026;-66
2022/05/11 09:50:58;;;;;;;7.20;4.70;;;;;;;23.47;47.99;98904.22;5012784;28;20025;-66
2022/05/11 09:53:37;;;;;;;9.15;4.78;;;;;;;23.49;49.91;98898.69;5004362;28;20384;-64
2022/05/11 09:56:20;;;;;;;;;;;;;;;23.38;50.84;98892.28;5008047;28;20053;-63
2022/05/11 09:58:46;;;;;;;6.20;4.10;;;;;;;23.24;49.66;98894.28;5005256;28;19940;-66
2022/05/11 10:01:15;;;;;;;8.88;4.78;;;;;;;23.29;49.32;98883.00;5007616;28;20029;-66
2022/05/11 10:03:51;;;;;;;8.38;4.60;;;;;;;23.17;49.40;98898.84;4993079;28;20079;-64
2022/05/11 10:06:18;;;;;;;7.32;4.20;;;;;;;22.97;48.17;98877.78;5000526;28;20053;-64
2022/05/11 11:57:54;;;;;;;9.07;4.93;;;;;;;24.46;47.04;98792.38;5008359;28;20121;-66
2022/05/11 12:00:29;;;;;;;7.55;4.88;;;;;;;24.36;45.57;98787.59;4999511;28;20085;-67
2022/05/11 12:02:55;;;;;;;7.75;4.85;;;;;;;24.35;45.61;98788.66;5033717;28;20373;-65
2022/05/11 12:05:44;;;;;;;7.93;4.97;;;;;;;24.42;46.27;98783.22;5016746;28;20378;-66
2022/05/11 12:16:56;;;;;;;7.38;5.43;;;;;;;24.38;44.05;98772.25;5003508;28;20041;-65
2022/05/11 12:19:23;;;;;;;8.07;4.60;;;;;;;24.58;44.84;98778.28;5020228;28;20120;-58
2022/05/11 12:22:18;;;;;;;7.72;5.40;;;;;;;24.53;44.41;98774.50;5020578;28;20037;-58
2022/05/11 12:24:48;;;;;;;7.82;5.13;;;;;;;24.64;45.23;98780.84;5046632;28;20041;-59
2022/05/11 12:27:30;;;;;;;8.60;4.97;;;;;;;24.80;44.87;98773.97;5020075;28;20468;-58
2022/05/11 12:30:04;;;;;;;7.32;5.25;;;;;;;24.75;44.09;98774.69;5021057;28;20104;-58
2022/05/11 12:32:36;;;;;;;7.15;4.80;;;;;;;24.80;43.78;98771.31;5016085;28;20026;-58
2022/05/11 12:35:17;;;;;;;7.65;5.10;;;;;;;24.82;43.35;98769.25;5021328;28;20087;-58
2022/05/11 12:37:43;;;;;;;8.65;5.05;;;;;;;24.60;44.86;98745.13;5015665;28;20033;-58
2022/05/11 12:40:19;;;;;;;7.40;5.35;;;;;;;24.85;44.56;98766.13;5020684;28;20488;-58
2022/05/11 12:42:51;;;;;;;7.65;4.90;;;;;;;24.81;43.77;98764.19;5017502;28;20112;-58
2022/05/11 12:45:27;;;;;;;7.80;4.82;;;;;;;24.84;43.88;98761.84;5019239;28;20033;-59
2022/05/11 12:47:55;;;;;;;7.55;4.80;;;;;;;24.87;42.42;98757.91;5021346;28;20372;-58
2022/05/11 12:50:27;;;;;;;7.00;4.85;;;;;;;24.84;43.74;98756.50;5002725;28;20058;-59
2022/05/11 12:53:17;;;;;;;7.00;4.88;;;;;;;24.81;43.19;98751.69;5021880;28;20083;-59
2022/05/11 12:55:54;;;;;;;10.18;4.78;;;;;;;24.96;44.02;98751.19;5018609;28;20033;-59
2022/05/11 12:58:26;;;;;;;7.47;4.50;;;;;;;25.05;43.17;98749.78;5021167;28;20043;-59
2022/05/11 13:01:00;;;;;;;9.15;4.97;;;;;;;25.11;43.14;98745.38;5016759;28;20343;-60
2022/05/11 13:03:30;;;;;;;6.82;4.97;;;;;;;25.13;42.00;98735.28;5013899;28;20028;-59
2022/05/11 13:06:01;;;;;;;8.32;5.00;;;;;;;25.17;41.55;98738.28;5022116;28;20054;-60
2022/05/11 13:08:34;;;;;;;6.63;4.53;;;;;;;25.12;42.19;98734.50;5052564;28;20033;-59
2022/05/11 13:10:59;;;;;;;7.22;4.10;;;;;;;25.38;41.57;98729.69;5004040;28;20045;-58
2022/05/11 13:13:30;;;;;;;8.60;4.20;;;;;;;25.39;41.39;98725.97;5017636;28;20057;-60
2022/05/11 13:16:04;;;;;;;9.88;4.45;;;;;;;25.30;41.25;98698.94;5000669;28;20036;-59
2022/05/11 13:18:31;;;;;;;6.80;4.30;;;;;;;25.43;41.52;98695.19;5004551;28;20053;-58
2022/05/11 13:21:01;;;;;;;7.53;4.68;;;;;;;25.40;41.13;98685.00;5026048;28;20328;-61
2022/05/11 13:23:33;;;;;;;7.07;3.95;;;;;;;25.65;40.63;98715.78;5018174;28;20036;-59
2022/05/11 13:26:02;;;;;;;7.00;4.05;;;;;;;25.79;40.20;98713.59;5018225;28;20083;-59
2022/05/11 13:28:30;;;;;;;6.80;3.70;;;;;;;25.78;38.79;98698.69;5015703;28;20029;-60
2022/05/11 13:30:59;;;;;;;8.53;4.20;;;;;;;25.56;39.05;98672.78;5021434;28;20030;-60
2022/05/11 13:33:33;;;;;;;6.88;4.32;;;;;;;25.81;39.98;98704.34;4977581;28;20063;-59
2022/05/11 13:36:17;;;;;;;6.63;4.20;;;;;;;25.85;40.38;98704.66;5017656;28;20396;-59
2022/05/11 13:38:55;;;;;;;10.73;4.50;;;;;;;25.65;41.99;98708.59;5010490;28;20060;-58
2022/05/11 13:41:43;;;;;;;7.22;3.60;;;;;;;25.76;39.85;98690.94;5018860;28;20024;-58
2022/05/11 13:44:21;;;;;;;6.53;3.40;;;;;;;25.89;39.01;98695.94;5018825;28;20034;-59
2022/05/11 13:49:33;;;;;;;5.95;3.08;;;;;;;25.96;38.65;98695.81;5027065;28;20044;-59
2022/05/11 13:52:01;;;;;;;6.03;3.30;;;;;;;25.96;38.34;98695.00;5018703;28;20018;-60
2022/05/11 13:54:43;;;;;;;6.28;3.78;;;;;;;26.03;39.40;98700.94;5014560;28;20034;-59
2022/05/11 13:57:24;;;;;;;6.82;3.80;;;;;;;26.09;38.18;98687.47;5004190;28;20025;-58
2022/05/11 13:59:50;;;;;;;5.75;3.60;;;;;;;26.16;38.67;98689.16;5016198;28;20032;-59
2022/05/11 14:02:16;;;;;;;8.40;4.40;;;;;;;26.07;38.20;98664.81;5019044;28;20030;-60
2022/05/11 14:04:43;;;;;;;9.60;4.28;;;;;;;26.13;39.29;98695.00;5007578;28;20048;-59
2022/05/11 14:07:14;;;;;;;7.07;3.80;;;;;;;26.16;39.95;98694.47;5006898;28;20026;-60
2022/05/11 14:09:42;;;;;;;7.93;4.50;;;;;;;26.24;39.50;98683.41;5020059;28;20075;-60
2022/05/11 14:12:12;;;;;;;6.50;4.50;;;;;;;26.40;38.39;98681.78;5010547;28;20451;-59
2022/05/11 14:14:38;;;;;;;7.43;4.13;;;;;;;26.41;39.07;98691.38;5016237;28;20022;-59
2022/05/11 14:17:06;;;;;;;7.65;4.35;;;;;;;26.39;38.84;98683.63;5020564;28;20033;-60
2022/05/11 14:19:33;;;;;;;5.97;3.90;;;;;;;26.40;38.42;98689.78;5020606;28;20018;-60
2022/05/11 14:21:59;;;;;;;6.38;3.78;;;;;;;26.42;38.74;98693.78;5036365;28;20053;-58
2022/05/11 14:24:24;;;;;;;7.40;3.63;;;;;;;26.54;38.49;98692.88;5015302;28;20604;-58
2022/05/11 14:26:50;;;;;;;7.13;4.20;;;;;;;26.61;37.69;98689.03;5023589;28;20032;-64
2022/05/11 14:29:17;;;;;;;7.05;4.25;;;;;;;26.71;37.76;98680.34;5021254;28;20673;-64
2022/05/11 14:31:44;;;;;;;7.55;4.07;;;;;;;26.63;37.20;98684.25;5020743;28;20394;-64
2022/05/11 14:34:12;;;;;;;8.13;3.97;;;;;;;26.77;36.62;98694.53;5020477;28;20132;-64
2022/05/11 14:36:39;;;;;;;8.23;3.78;;;;;;;26.81;37.61;98690.31;5029362;28;20030;-64
2022/05/11 14:39:05;;;;;;;6.50;3.58;;;;;;;26.86;36.58;98682.38;5035055;28;20021;-64
2022/05/11 14:41:30;;;;;;;6.10;3.70;;;;;;;26.70;36.55;98678.72;5035633;28;20392;-64
2022/05/11 14:43:59;;;;;;;7.07;3.80;;;;;;;26.77;36.77;98673.19;4998567;28;20080;-64
2022/05/11 14:46:27;;;;;;;7.40;3.80;;;;;;;26.94;36.38;98673.94;5015879;28;20064;-64
2022/05/11 14:48:54;;;;;;;7.57;3.78;;;;;;;27.06;36.19;98676.44;5021570;28;20056;-64
2022/05/11 14:51:19;;;;;;;6.53;4.05;;;;;;;27.02;35.39;98676.16;5016593;28;20102;-64
2022/05/11 14:53:47;;;;;;;6.30;3.47;;;;;;;27.02;35.09;98667.34;5021621;28;20040;-64
2022/05/11 14:56:13;;;;;;;6.05;3.60;;;;;;;26.99;35.74;98662.50;5023386;28;20059;-64
2022/05/11 15:04:12;;;;;;;6.05;3.63;;;;;;;27.08;35.96;98669.00;5020507;28;20099;-65
2022/05/11 15:06:40;;;;;;;8.63;3.55;;;;;;;27.14;35.62;98665.31;5020838;28;20033;-63
2022/05/11 15:09:06;;;;;;;7.55;3.60;;;;;;;26.89;35.69;98639.19;4982543;28;20166;-64
2022/05/11 15:14:26;;;;;;;6.10;3.35;;;;;;;26.95;34.50;98653.41;5024219;28;20032;-64
2022/05/11 15:16:56;;;;;;;6.88;3.58;;;;;;;26.98;34.70;98658.22;5038668;28;20107;-65
2022/05/11 15:19:22;;;;;;;7.13;3.65;;;;;;;27.04;34.62;98666.03;5006704;28;20499;-65
2022/05/11 15:21:48;;;;;;;7.00;3.38;;;;;;;27.13;34.22;98660.25;5026700;28;20059;-64
2022/05/11 15:24:14;;;;;;;6.35;3.80;;;;;;;27.20;34.95;98667.00;5019679;28;20080;-63
2022/05/11 15:26:39;;;;;;;8.23;3.63;;;;;;;27.19;34.35;98660.03;5024568;28;20021;-65
2022/05/11 15:29:05;;;;;;;6.93;3.67;;;;;;;27.19;34.85;98656.56;5002380;28;20025;-64
2022/05/11 15:31:30;;;;;;;11.20;3.78;;;;;;;27.18;34.14;98669.13;5025708;28;20029;-65
2022/05/11 15:33:56;;;;;;;5.63;3.20;;;;;;;27.04;34.50;98630.53;5017511;28;20060;-64
2022/05/11 15:36:21;;;;;;;6.93;3.72;;;;;;;27.22;34.42;98661.41;5010522;28;20215;-66
2022/05/11 15:38:47;;;;;;;6.50;3.03;;;;;;;27.16;34.38;98665.06;5020415;28;20566;-65
2022/05/11 15:41:12;;;;;;;8.02;3.17;;;;;;;27.16;34.43;98647.22;5020115;28;20021;-61
2022/05/11 15:43:38;;;;;;;6.05;3.22;;;;;;;27.38;34.31;98659.69;4996684;28;20677;-61
2022/05/11 15:46:04;;;;;;;5.72;3.25;;;;;;;27.29;33.57;98662.03;5004481;28;20034;-60
2022/05/11 15:48:31;;;;;;;7.05;3.58;;;;;;;27.15;34.84;98660.81;5019511;28;20252;-61
2022/05/11 15:50:57;;;;;;;6.75;3.40;;;;;;;26.93;35.01;98644.84;5020608;28;20036;-61
2022/05/11 15:53:29;;;;;;;6.15;3.65;;;;;;;26.95;35.27;98658.72;5024969;28;20034;-61
2022/05/11 15:55:55;;;;;;;6.72;4.00;;;;;;;26.83;36.62;98658.84;5045206;28;20041;-60
2022/05/11 15:58:25;;;;;;;6.50;3.80;;;;;;;26.72;35.43;98663.25;5029707;28;20030;-60
2022/05/11 16:00:50;;;;;;;6.43;3.60;;;;;;;26.64;35.34;98635.19;5009800;28;20022;-59
2022/05/11 16:03:17;;;;;;;7.40;3.40;;;;;;;26.73;35.67;98659.56;5020473;28;20559;-60
2022/05/11 16:05:43;;;;;;;5.55;3.38;;;;;;;26.67;36.60;98628.56;5029748;28;20136;-60
2022/05/11 16:08:08;;;;;;;7.32;3.30;;;;;;;26.71;37.18;98655.53;5000941;28;20472;-61
2022/05/11 16:10:34;;;;;;;6.93;3.40;;;;;;;26.60;37.14;98631.41;5015796;28;20029;-60
2022/05/11 16:13:00;;;;;;;7.63;3.33;;;;;;;26.72;37.02;98647.25;5010198;28;20030;-60
2022/05/11 16:15:25;;;;;;;6.88;3.42;;;;;;;26.58;37.67;98648.69;5004469;28;20021;-59
2022/05/11 16:20:35;;;;;;;6.18;3.17;;;;;;;26.54;39.18;98652.88;5012458;28;20116;-59
2022/05/11 16:23:00;;;;;;;6.75;3.22;;;;;;;26.42;38.80;98648.47;5012227;28;20112;-60
2022/05/11 16:25:26;;;;;;;6.90;3.13;;;;;;;26.24;38.86;98644.25;5019630;28;20025;-61
2022/05/11 16:27:52;;;;;;;6.60;3.55;;;;;;;26.09;39.12;98642.19;4995720;28;21035;-61
2022/05/11 16:30:17;;;;;;;6.45;3.63;;;;;;;25.88;39.32;98645.56;5012577;28;20029;-60
2022/05/11 16:32:43;;;;;;;6.97;3.10;;;;;;;25.79;40.38;98642.53;5011253;28;20060;-59
2022/05/11 16:35:08;;;;;;;6.57;3.60;;;;;;;25.55;40.85;98607.25;4998645;28;20025;-59
2022/05/11 16:37:34;;;;;;;6.70;3.17;;;;;;;25.59;40.96;98645.69;4992324;28;20135;-59
2022/05/11 16:40:03;;;;;;;6.90;3.17;;;;;;;25.56;40.15;98640.03;5017337;28;20029;-59
2022/05/11 16:42:30;;;;;;;6.32;3.40;;;;;;;25.22;40.17;98637.28;5011139;28;20550;-60
2022/05/11 16:44:56;;;;;;;5.78;3.28;;;;;;;25.30;40.39;98644.94;5018983;28;20787;-59
2022/05/11 16:47:21;;;;;;;6.00;3.30;;;;;;;25.26;40.81;98644.59;5016330;28;20068;-59
2022/05/11 16:49:49;;;;;;;6.13;3.15;;;;;;;25.01;42.25;98641.41;5014145;28;20034;-59
2022/05/11 16:52:16;;;;;;;6.82;3.03;;;;;;;24.97;42.47;98646.44;5014485;28;20183;-60
2022/05/11 16:54:42;;;;;;;6.57;3.10;;;;;;;24.86;42.22;98620.66;5014353;28;20087;-64
2022/05/11 16:57:09;;;;;;;6.53;3.05;;;;;;;25.05;42.26;98651.34;5047867;28;20038;-63
2022/05/11 16:59:35;;;;;;;7.45;2.90;;;;;;;25.04;42.38;98648.94;5000293;28;20422;-63
2022/05/11 17:02:01;;;;;;;4.82;2.80;;;;;;;24.87;42.86;98644.38;5015642;28;20033;-63
2022/05/11 17:04:28;;;;;;;5.07;3.03;;;;;;;24.61;43.04;98621.00;5020546;28;20032;-62
2022/05/11 17:06:54;;;;;;;6.63;3.22;;;;;;;24.62;43.61;98650.00;5015001;28;20140;-64
2022/05/11 17:09:19;;;;;;;5.03;2.95;;;;;;;24.78;43.12;98639.69;5020354;28;20501;-62
2022/05/11 17:11:48;;;;;;;6.22;3.20;;;;;;;24.79;43.48;98650.06;5010826;28;20466;-63
2022/05/11 17:14:15;;;;;;;6.50;3.10;;;;;;;24.66;43.24;98648.50;5018971;28;20018;-65
2022/05/11 17:16:40;;;;;;;6.15;3.20;;;;;;;24.49;44.11;98644.91;5020324;28;20120;-62
2022/05/11 17:19:07;;;;;;;6.63;3.42;;;;;;;24.37;44.12;98650.25;5018418;28;20548;-64
2022/05/11 17:21:34;;;;;;;7.40;3.00;;;;;;;24.23;44.83;98647.03;5020609;28;20116;-65
2022/05/11 17:24:00;;;;;;;6.10;2.85;;;;;;;24.23;45.04;98657.66;5014723;28;20029;-62
2022/05/11 17:26:25;;;;;;;7.30;3.65;;;;;;;24.18;44.23;98629.13;5016015;28;20589;-64
2022/05/11 17:28:51;;;;;;;5.65;3.03;;;;;;;24.40;43.23;98654.28;5014906;28;20044;-64